Time;durP1;ratioP1;P1;durP2;ratioP2;P2;SDS_P1;SDS_P2;PMS_P1;PMS_P2;Temp;Humidity;BMP_temperature;BMP_pressure;BME280_temperature;BME280_humidity;BME280_pressure;Samples;Min_cycle;Max_cycle;Signal;HPM_P1;HPM_P2
2022/07/11 00:01:26;;;;;;;2.08;1.98;;;;;;;21.99;75.94;99956.81;4900027;29;20033;-84
2022/07/11 00:03:54;;;;;;;2.22;2.03;;;;;;;21.90;75.98;99946.53;4897978;29;20043;-83
2022/07/11 00:06:20;;;;;;;2.05;1.90;;;;;;;21.86;76.65;99949.97;4894787;29;20479;-84
2022/07/11 00:08:45;;;;;;;2.70;2.45;;;;;;;21.71;76.98;99943.34;4900014;29;20036;-83
2022/07/11 00:11:11;;;;;;;3.30;2.13;;;;;;;21.62;77.92;99961.63;4915318;29;20482;-85
2022/07/11 00:13:37;;;;;;;2.40;2.20;;;;;;;21.52;78.86;99951.59;4901681;29;20046;-83
2022/07/11 00:16:03;;;;;;;4.00;2.30;;;;;;;21.45;79.08;99936.81;4912428;29;20492;-84
2022/07/11 00:18:28;;;;;;;2.15;2.00;;;;;;;21.41;79.27;99936.47;4910420;29;20028;-84
2022/07/11 00:20:54;;;;;;;2.22;2.03;;;;;;;21.37;79.72;99932.69;4890476;29;20509;-84
2022/07/11 00:23:20;;;;;;;2.30;2.10;;;;;;;21.36;79.29;99931.06;4906287;29;20040;-83
2022/07/11 00:25:45;;;;;;;2.55;2.20;;;;;;;21.53;78.64;99942.53;4885170;29;20059;-85
2022/07/11 00:28:11;;;;;;;2.13;1.77;;;;;;;21.40;78.72;99933.00;4894332;29;20036;-84
2022/07/11 00:30:37;;;;;;;2.83;1.90;;;;;;;21.47;78.37;99932.03;4904251;29;20028;-84
2022/07/11 00:33:02;;;;;;;2.15;2.05;;;;;;;21.58;78.36;99935.66;4899832;29;20123;-83
2022/07/11 00:35:28;;;;;;;2.78;2.10;;;;;;;21.58;78.73;99930.31;4889019;29;20090;-83
2022/07/11 00:37:54;;;;;;;1.77;1.67;;;;;;;21.40;79.51;99926.84;4903062;29;20056;-84
2022/07/11 00:40:19;;;;;;;3.45;2.00;;;;;;;21.32;80.35;99927.28;4891163;29;20088;-84
2022/07/11 00:42:45;;;;;;;3.22;1.90;;;;;;;21.17;80.98;99925.97;4905710;29;20033;-85
2022/07/11 00:45:11;;;;;;;2.13;1.90;;;;;;;21.15;81.21;99929.97;4905547;29;20038;-84
2022/07/11 00:47:36;;;;;;;2.50;2.30;;;;;;;21.08;81.65;99925.56;4909778;29;20032;-84
2022/07/11 00:50:20;;;;;;;3.00;2.13;;;;;;;21.04;81.82;99929.00;4894295;29;20065;-83
2022/07/11 00:52:46;;;;;;;2.42;2.20;;;;;;;20.94;81.97;99926.97;4907395;29;20033;-84
2022/07/11 00:55:12;;;;;;;3.63;2.35;;;;;;;20.93;82.27;99944.81;4905341;29;20024;-83
2022/07/11 00:57:39;;;;;;;2.38;2.17;;;;;;;20.86;81.66;99936.16;4890126;29;20036;-83
2022/07/11 01:00:06;;;;;;;2.28;2.05;;;;;;;20.87;81.33;99927.13;4873265;29;20095;-84
2022/07/11 01:02:32;;;;;;;3.83;2.25;;;;;;;20.83;80.91;99933.94;4913703;29;20095;-82
2022/07/11 01:04:59;;;;;;;4.60;2.40;;;;;;;20.79;81.03;99914.13;4898044;29;20162;-83
2022/07/11 01:07:25;;;;;;;2.58;2.17;;;;;;;20.74;81.09;99924.72;4890599;29;20032;-83
2022/07/11 01:09:51;;;;;;;2.28;1.90;;;;;;;20.73;81.04;99929.22;4883079;29;20525;-84
2022/07/11 01:12:17;;;;;;;1.90;1.80;;;;;;;20.82;80.83;99925.16;4902623;29;20115;-83
2022/07/11 01:14:57;;;;;;;2.55;2.00;;;;;;;20.90;80.58;99920.47;4897218;29;20060;-82
2022/07/11 01:17:23;;;;;;;2.22;1.85;;;;;;;20.76;80.91;99927.94;4879708;29;20432;-83
2022/07/11 01:19:49;;;;;;;2.13;1.85;;;;;;;20.84;80.47;99930.25;4903703;29;20037;-84
2022/07/11 01:22:17;;;;;;;1.60;1.50;;;;;;;20.83;80.93;99925.94;4889622;29;20475;-82
2022/07/11 01:24:44;;;;;;;1.98;1.75;;;;;;;20.67;81.48;99925.69;4894384;29;20384;-83
2022/07/11 01:27:10;;;;;;;2.30;1.90;;;;;;;20.58;82.38;99920.97;4908049;29;20062;-83
2022/07/11 01:29:36;;;;;;;2.10;1.90;;;;;;;20.47;82.58;99914.66;4871752;29;20073;-83
2022/07/11 01:32:02;;;;;;;2.13;1.70;;;;;;;20.39;83.00;99916.63;4897848;29;20029;-82
2022/07/11 01:34:28;;;;;;;3.38;2.38;;;;;;;20.24;83.54;99908.31;4906599;29;20028;-82
2022/07/11 01:36:54;;;;;;;1.80;1.70;;;;;;;20.16;83.99;99903.38;4907895;29;20472;-82
2022/07/11 01:39:19;;;;;;;2.30;2.08;;;;;;;20.11;84.71;99899.59;4902471;29;20049;-83
2022/07/11 01:41:45;;;;;;;3.05;2.00;;;;;;;20.20;84.70;99900.00;4901986;29;20480;-83
2022/07/11 01:44:11;;;;;;;4.10;2.00;;;;;;;20.21;84.24;99890.97;4891742;29;20111;-83
2022/07/11 01:46:37;;;;;;;1.83;1.73;;;;;;;20.18;84.29;99890.63;4912945;29;20159;-84
2022/07/11 01:49:02;;;;;;;2.40;2.10;;;;;;;20.08;84.24;99885.91;4906204;29;20115;-84
2022/07/11 01:51:29;;;;;;;2.15;1.90;;;;;;;20.06;84.32;99893.34;4895675;29;20500;-84
2022/07/11 01:53:55;;;;;;;2.50;2.00;;;;;;;20.04;84.12;99892.75;4900012;29;20056;-84
2022/07/11 01:56:22;;;;;;;1.90;1.80;;;;;;;20.05;84.19;99889.06;4900027;29;20514;-84
2022/07/11 01:58:48;;;;;;;1.88;1.77;;;;;;;19.95;84.53;99889.66;4911310;29;20364;-83
2022/07/11 02:01:14;;;;;;;2.50;1.95;;;;;;;19.97;84.82;99879.56;4891647;29;20033;-84
2022/07/11 02:03:40;;;;;;;1.70;1.60;;;;;;;19.89;85.52;99879.91;4901197;29;20032;-83
2022/07/11 02:06:06;;;;;;;2.28;1.90;;;;;;;19.81;85.87;99873.91;4911371;29;20033;-85
2022/07/11 02:08:32;;;;;;;2.53;1.90;;;;;;;19.81;85.97;99873.09;4868759;29;20403;-84
2022/07/11 02:10:58;;;;;;;2.67;1.95;;;;;;;19.87;85.75;99871.34;4913542;29;20036;-83
2022/07/11 02:13:24;;;;;;;2.78;1.67;;;;;;;19.89;85.12;99866.59;4900420;29;20052;-82
2022/07/11 02:15:51;;;;;;;2.60;2.00;;;;;;;19.77;85.25;99859.44;4902712;29;20103;-83
2022/07/11 02:18:17;;;;;;;2.75;1.80;;;;;;;19.82;84.08;99856.88;4893276;29;20043;-83
2022/07/11 02:20:45;;;;;;;2.20;1.70;;;;;;;19.80;84.08;99861.63;4880523;29;20051;-82
2022/07/11 02:23:12;;;;;;;2.00;1.80;;;;;;;19.76;84.21;99857.81;4906936;29;20088;-83
2022/07/11 02:25:38;;;;;;;1.90;1.70;;;;;;;19.81;83.88;99860.56;4904344;29;20029;-82
2022/07/11 02:28:10;;;;;;;1.70;1.60;;;;;;;19.76;84.21;99860.47;4910104;29;20083;-82
2022/07/11 02:30:37;;;;;;;1.70;1.60;;;;;;;19.69;84.36;99854.50;4911335;29;20040;-83
2022/07/11 02:33:04;;;;;;;3.15;1.77;;;;;;;19.69;84.56;99851.81;4888069;29;20047;-83
2022/07/11 02:35:31;;;;;;;2.17;1.75;;;;;;;19.65;84.55;99843.47;4898848;29;20091;-84
2022/07/11 02:37:58;;;;;;;2.10;1.73;;;;;;;19.82;84.46;99859.53;4906303;29;20103;-84
2022/07/11 02:40:23;;;;;;;2.25;1.75;;;;;;;19.80;84.22;99847.50;4892447;29;20058;-83
2022/07/11 02:42:49;;;;;;;1.98;1.77;;;;;;;19.82;83.92;99859.53;4917427;29;20104;-83
2022/07/11 02:45:15;;;;;;;1.80;1.70;;;;;;;19.78;83.65;99858.38;4880017;29;20028;-81
2022/07/11 02:47:42;;;;;;;1.70;1.60;;;;;;;19.88;83.30;99849.78;4908810;29;20610;-83
2022/07/11 02:50:12;;;;;;;1.67;1.58;;;;;;;19.88;83.12;99843.66;4901461;29;20122;-83
2022/07/11 02:52:40;;;;;;;2.25;1.70;;;;;;;19.88;83.06;99838.34;4870029;29;20127;-82
2022/07/11 02:55:08;;;;;;;1.75;1.40;;;;;;;19.84;83.18;99836.13;4892222;29;20032;-82
2022/07/11 02:57:35;;;;;;;3.42;1.45;;;;;;;19.83;83.42;99841.72;4917202;29;20039;-83
2022/07/11 03:00:03;;;;;;;1.75;1.50;;;;;;;19.82;83.44;99840.88;4912919;29;20431;-82
2022/07/11 03:02:29;;;;;;;1.40;1.30;;;;;;;19.79;84.11;99845.91;4908923;29;20063;-83
2022/07/11 03:04:55;;;;;;;2.03;1.52;;;;;;;19.74;84.31;99843.94;4908523;29;20056;-83
2022/07/11 03:07:20;;;;;;;2.85;1.48;;;;;;;19.72;84.40;99845.19;4901223;29;20107;-83
2022/07/11 03:09:46;;;;;;;1.70;1.60;;;;;;;19.67;84.58;99843.25;4907764;29;20036;-83
2022/07/11 03:12:12;;;;;;;1.70;1.60;;;;;;;19.65;84.74;99829.34;4896628;29;20080;-82
2022/07/11 03:14:37;;;;;;;1.50;1.33;;;;;;;19.61;84.87;99834.34;4910767;29;20079;-83
2022/07/11 03:17:03;;;;;;;1.80;1.70;;;;;;;19.51;85.20;99834.94;4906190;29;20046;-82
2022/07/11 03:19:29;;;;;;;1.73;1.50;;;;;;;19.45;85.51;99835.06;4893260;29;20040;-82
2022/07/11 03:21:54;;;;;;;1.75;1.65;;;;;;;19.40;85.93;99839.25;4899387;29;20134;-82
2022/07/11 03:24:20;;;;;;;1.80;1.70;;;;;;;19.33;86.51;99832.44;4873689;29;20028;-82
2022/07/11 03:26:46;;;;;;;2.72;1.75;;;;;;;19.33;86.61;99837.75;4912474;29;20048;-82
2022/07/11 03:29:11;;;;;;;3.10;1.63;;;;;;;19.33;86.89;99843.88;4907243;29;20032;-82
2022/07/11 03:31:37;;;;;;;2.30;1.60;;;;;;;19.23;87.33;99844.44;4905656;29;20033;-82
2022/07/11 03:34:03;;;;;;;2.00;1.52;;;;;;;19.17;88.35;99839.28;4885967;29;20483;-82
2022/07/11 03:36:29;;;;;;;1.52;1.42;;;;;;;19.10;88.50;99840.16;4893320;29;20039;-83
2022/07/11 03:38:54;;;;;;;2.33;1.60;;;;;;;19.04;89.02;99840.28;4876117;29;20079;-83
2022/07/11 03:41:20;;;;;;;2.35;1.40;;;;;;;18.99;89.12;99833.00;4889277;29;20071;-82
2022/07/11 03:43:46;;;;;;;2.20;1.60;;;;;;;18.96;89.38;99833.41;4897552;29;20090;-82
2022/07/11 03:46:11;;;;;;;1.77;1.65;;;;;;;18.91;89.63;99820.84;4919216;29;20032;-84
2022/07/11 03:48:37;;;;;;;2.05;1.77;;;;;;;18.98;90.12;99829.53;4891844;29;20032;-84
2022/07/11 03:51:03;;;;;;;1.90;1.70;;;;;;;19.04;89.96;99835.78;4884734;29;20094;-83
2022/07/11 03:53:28;;;;;;;1.90;1.48;;;;;;;19.17;88.36;99829.41;4894246;29;20094;-84
2022/07/11 03:55:54;;;;;;;2.80;1.80;;;;;;;19.21;87.34;99835.88;4900597;29;20487;-83
2022/07/11 03:58:19;;;;;;;1.80;1.50;;;;;;;19.18;87.52;99836.34;4915754;29;20040;-85
2022/07/11 04:00:45;;;;;;;1.90;1.70;;;;;;;19.19;88.09;99829.19;4921895;29;20032;-83
2022/07/11 04:03:10;;;;;;;2.95;1.70;;;;;;;19.17;88.08;99829.41;4895117;29;20089;-84
2022/07/11 04:05:36;;;;;;;1.67;1.58;;;;;;;19.20;88.49;99836.94;4904902;29;20040;-84
2022/07/11 04:08:02;;;;;;;1.70;1.50;;;;;;;19.20;88.87;99842.25;4907387;29;20080;-84
2022/07/11 04:10:28;;;;;;;2.60;1.70;;;;;;;19.20;89.00;99836.13;4917492;29;20480;-85
2022/07/11 04:12:55;;;;;;;1.80;1.70;;;;;;;19.24;89.54;99832.75;4878087;29;20037;-84
2022/07/11 04:15:20;;;;;;;2.00;1.50;;;;;;;19.25;89.45;99839.69;4891273;29;20487;-84
2022/07/11 04:17:46;;;;;;;1.88;1.52;;;;;;;19.33;89.68;99833.22;4886347;29;20566;-85
2022/07/11 04:20:13;;;;;;;1.80;1.70;;;;;;;19.37;89.77;99831.72;4910475;29;20095;-84
2022/07/11 04:22:38;;;;;;;1.83;1.67;;;;;;;19.33;89.88;99822.56;4901468;29;20044;-83
2022/07/11 04:25:04;;;;;;;2.85;1.95;;;;;;;19.44;90.05;99839.56;4894911;29;20044;-84
2022/07/11 04:27:30;;;;;;;4.00;2.10;;;;;;;19.44;90.63;99839.56;4904000;29;20033;-81
2022/07/11 04:29:59;;;;;;;3.25;2.22;;;;;;;19.43;90.77;99829.16;4894873;29;20608;-81
2022/07/11 04:32:24;;;;;;;1.73;1.60;;;;;;;19.42;91.07;99825.69;4887270;29;20056;-83
2022/07/11 04:34:50;;;;;;;2.40;1.70;;;;;;;19.38;91.27;99822.69;4911104;29;20040;-83
2022/07/11 04:37:16;;;;;;;2.42;1.92;;;;;;;19.49;91.26;99834.38;4887530;29;20036;-82
2022/07/11 04:39:45;;;;;;;2.47;1.65;;;;;;;19.56;90.91;99834.25;4911597;29;20472;-81
2022/07/11 04:42:10;;;;;;;2.42;1.48;;;;;;;19.63;90.72;99832.25;4892016;29;20120;-82
2022/07/11 04:44:36;;;;;;;2.88;1.95;;;;;;;19.67;90.62;99837.94;4913607;29;20039;-82
2022/07/11 04:47:02;;;;;;;1.60;1.50;;;;;;;19.82;90.09;99838.22;4885354;29;20484;-82
2022/07/11 04:49:29;;;;;;;3.30;2.05;;;;;;;19.92;89.56;99834.97;4906732;29;20037;-82
2022/07/11 04:51:55;;;;;;;2.20;1.48;;;;;;;19.94;89.75;99829.44;4911622;29;20100;-83
2022/07/11 04:54:22;;;;;;;2.85;1.60;;;;;;;19.97;89.84;99832.44;4885417;29;20087;-82
2022/07/11 04:56:48;;;;;;;3.05;1.60;;;;;;;20.08;89.50;99832.59;4913126;29;20042;-83
2022/07/11 04:59:13;;;;;;;2.53;1.67;;;;;;;20.10;89.83;99831.34;4906962;29;20475;-82
2022/07/11 05:01:40;;;;;;;4.75;2.00;;;;;;;20.26;89.62;99831.63;4916392;29;20036;-82
2022/07/11 05:04:07;;;;;;;1.80;1.60;;;;;;;20.37;89.25;99832.59;4918145;29;20223;-82
2022/07/11 05:06:33;;;;;;;1.60;1.50;;;;;;;20.43;88.95;99833.47;4912362;29;20036;-83
2022/07/11 05:08:59;;;;;;;1.85;1.50;;;;;;;20.53;88.93;99841.66;4908294;29;20075;-82
2022/07/11 05:11:24;;;;;;;2.33;1.80;;;;;;;20.58;88.82;99849.75;4908011;29;20035;-83
2022/07/11 05:13:50;;;;;;;3.83;1.60;;;;;;;20.69;88.72;99843.56;4906037;29;20067;-82
2022/07/11 05:16:16;;;;;;;2.28;1.70;;;;;;;20.72;88.48;99841.44;4892836;29;20399;-82
2022/07/11 05:18:42;;;;;;;2.13;1.40;;;;;;;20.78;87.97;99843.13;4900475;29;20518;-82
2022/07/11 05:21:07;;;;;;;1.73;1.52;;;;;;;20.86;87.08;99834.78;4906942;29;20032;-83
2022/07/11 05:23:33;;;;;;;3.30;1.80;;;;;;;20.94;86.62;99833.56;4889394;29;20479;-83
2022/07/11 05:25:59;;;;;;;1.50;1.40;;;;;;;21.07;85.80;99837.75;4900359;29;20028;-83
2022/07/11 05:28:24;;;;;;;1.83;1.50;;;;;;;21.14;85.80;99838.38;4889092;29;20502;-83
2022/07/11 05:30:50;;;;;;;3.83;1.50;;;;;;;21.19;86.38;99829.63;4907714;29;20033;-83
2022/07/11 05:33:15;;;;;;;2.20;1.80;;;;;;;21.30;86.77;99830.59;4884204;29;20131;-83
2022/07/11 05:35:41;;;;;;;2.20;1.70;;;;;;;21.42;87.83;99838.47;4905033;29;20037;-84
2022/07/11 05:38:07;;;;;;;3.17;2.00;;;;;;;21.46;87.43;99836.94;4914680;29;20044;-83
2022/07/11 05:40:32;;;;;;;2.33;1.42;;;;;;;21.46;87.20;99829.75;4891316;29;20396;-83
2022/07/11 05:42:58;;;;;;;2.53;1.70;;;;;;;21.51;87.14;99834.31;4902851;29;20487;-84
2022/07/11 05:45:23;;;;;;;1.85;1.73;;;;;;;21.49;87.33;99829.25;4900812;29;20138;-83
2022/07/11 05:47:49;;;;;;;1.63;1.52;;;;;;;21.67;87.21;99840.72;4906801;29;20028;-81
2022/07/11 05:50:14;;;;;;;2.22;1.80;;;;;;;21.77;87.64;99838.16;4906899;29;20099;-80
2022/07/11 05:52:40;;;;;;;2.80;1.70;;;;;;;21.85;87.37;99844.13;4907240;29;20039;-84
2022/07/11 05:55:07;;;;;;;1.70;1.60;;;;;;;21.88;87.45;99833.72;4907342;29;20032;-84
2022/07/11 05:57:33;;;;;;;1.85;1.70;;;;;;;21.98;87.49;99843.72;4903313;29;20029;-84
2022/07/11 05:59:58;;;;;;;3.15;1.58;;;;;;;21.98;87.79;99835.69;4897006;29;20045;-84
2022/07/11 06:02:24;;;;;;;3.05;1.73;;;;;;;22.07;87.38;99839.56;4911103;29;20088;-84
2022/07/11 06:04:50;;;;;;;2.33;1.75;;;;;;;22.09;87.36;99837.44;4905417;29;20033;-85
2022/07/11 06:08:40;;;;;;;3.30;2.10;;;;;;;22.15;86.76;99829.47;4889042;29;20040;-85
2022/07/11 06:10:01;;;;;;;3.15;1.50;;;;;;;22.30;85.36;99848.34;4912700;29;20374;-86
2022/07/11 06:12:27;;;;;;;3.95;1.80;;;;;;;22.34;84.43;99838.75;4916802;29;20032;-85
2022/07/11 06:14:52;;;;;;;5.13;2.13;;;;;;;22.36;83.92;99831.25;4904313;29;20044;-85
2022/07/11 06:17:18;;;;;;;2.20;1.60;;;;;;;22.46;84.13;99829.75;4900006;29;20067;-85
2022/07/11 06:19:43;;;;;;;2.25;1.90;;;;;;;22.56;84.41;99835.22;4904591;29;20119;-85
2022/07/11 06:22:09;;;;;;;2.03;1.80;;;;;;;22.66;83.91;99837.16;4889834;29;20500;-86
2022/07/11 06:24:34;;;;;;;2.20;1.70;;;;;;;22.75;82.24;99834.81;4907728;29;20032;-88
2022/07/11 06:27:00;;;;;;;3.08;1.90;;;;;;;22.84;82.48;99841.34;4905790;29;20395;-85
2022/07/11 06:29:27;;;;;;;3.50;2.10;;;;;;;22.94;82.63;99836.03;4899906;29;20096;-87
2022/07/11 06:31:52;;;;;;;2.30;1.90;;;;;;;23.01;83.16;99843.84;4905593;29;20032;-87
2022/07/11 06:34:19;;;;;;;3.03;2.13;;;;;;;23.08;83.76;99835.59;4886159;29;20498;-88
2022/07/11 06:36:44;;;;;;;2.00;1.80;;;;;;;23.15;83.14;99844.19;4901862;29;20167;-88
2022/07/11 06:39:10;;;;;;;3.88;1.90;;;;;;;23.19;83.29;99837.28;4900454;29;20411;-89
2022/07/11 06:41:35;;;;;;;7.65;1.88;;;;;;;23.31;82.82;99834.44;4902146;29;20041;-86
2022/07/11 06:44:02;;;;;;;3.13;1.77;;;;;;;23.41;82.46;99839.03;4893067;29;20056;-85
2022/07/11 06:46:28;;;;;;;1.98;1.80;;;;;;;23.45;81.94;99840.13;4906030;29;20028;-86
2022/07/11 06:48:54;;;;;;;2.72;1.80;;;;;;;23.54;80.79;99841.22;4882772;29;20501;-83
2022/07/11 06:51:21;;;;;;;2.85;2.28;;;;;;;23.60;80.40;99835.91;4900366;29;20117;-81
2022/07/11 06:53:47;;;;;;;2.35;2.15;;;;;;;23.72;80.24;99843.72;4899439;29;20032;-87
2022/07/11 06:56:13;;;;;;;2.25;2.08;;;;;;;23.78;79.94;99843.47;4904646;29;20038;-86
2022/07/11 06:58:38;;;;;;;3.70;2.20;;;;;;;23.89;78.79;99840.81;4891262;29;20052;-83
2022/07/11 07:01:06;;;;;;;2.70;2.17;;;;;;;23.91;77.55;99836.00;4907575;29;20526;-81
2022/07/11 07:03:33;;;;;;;2.88;1.88;;;;;;;23.99;77.65;99838.19;4901398;29;20040;-83
2022/07/11 07:06:00;;;;;;;5.82;2.25;;;;;;;24.06;77.55;99841.44;4899919;29;20034;-84
2022/07/11 07:08:29;;;;;;;3.60;1.90;;;;;;;24.13;77.42;99837.69;4889313;29;20100;-84
2022/07/11 07:10:55;;;;;;;2.70;2.20;;;;;;;24.19;76.82;99842.00;4888999;29;20028;-87
2022/07/11 07:13:25;;;;;;;2.15;2.00;;;;;;;24.19;76.75;99836.63;4891951;29;20035;-87
2022/07/11 07:15:54;;;;;;;3.75;2.47;;;;;;;24.19;76.37;99828.59;4893663;29;20104;-86
2022/07/11 07:18:20;;;;;;;3.90;2.50;;;;;;;24.27;76.74;99836.09;4884635;29;20029;-87
2022/07/11 07:20:47;;;;;;;2.40;2.20;;;;;;;24.38;76.79;99840.41;4880038;29;20383;-85
2022/07/11 07:23:13;;;;;;;2.67;2.47;;;;;;;24.48;76.79;99838.81;4885028;29;20092;-85
2022/07/11 07:25:39;;;;;;;3.38;2.10;;;;;;;24.51;75.78;99835.56;4895591;29;20028;-87
2022/07/11 07:28:05;;;;;;;4.22;2.38;;;;;;;24.64;75.34;99853.84;4900783;29;20043;-86
2022/07/11 07:30:32;;;;;;;2.95;2.13;;;;;;;24.73;72.54;99842.56;4894087;29;20083;-86
2022/07/11 07:32:59;;;;;;;3.88;2.55;;;;;;;24.75;72.41;99841.25;4893731;29;20043;-86
2022/07/11 07:35:27;;;;;;;5.65;2.83;;;;;;;24.83;71.14;99842.59;4894781;29;20039;-87
2022/07/11 07:37:52;;;;;;;9.75;3.22;;;;;;;24.86;69.94;99844.72;4893772;29;20037;-87
2022/07/11 07:40:18;;;;;;;10.88;3.33;;;;;;;24.98;68.26;99851.72;4894809;29;20052;-86
2022/07/11 07:42:44;;;;;;;9.93;2.90;;;;;;;25.04;67.64;99845.25;4876344;29;20123;-86
2022/07/11 07:45:10;;;;;;;2.50;2.30;;;;;;;25.21;67.32;99853.81;4906989;29;20028;-87
2022/07/11 07:47:36;;;;;;;7.22;2.33;;;;;;;25.30;67.33;99847.84;4893180;29;20039;-88
2022/07/11 07:50:02;;;;;;;7.72;2.42;;;;;;;25.44;68.11;99846.22;4908873;29;20619;-88
2022/07/11 07:52:28;;;;;;;3.60;2.20;;;;;;;25.52;69.54;99840.28;4912346;29;20123;-88
2022/07/11 07:54:54;;;;;;;4.30;2.40;;;;;;;25.65;70.19;99848.84;4912629;29;20111;-88
2022/07/11 07:57:19;;;;;;;7.20;2.40;;;;;;;25.72;70.26;99849.34;4908873;29;20036;-85
2022/07/11 07:59:45;;;;;;;3.78;2.33;;;;;;;25.76;72.49;99845.03;4914368;29;20107;-86
2022/07/11 08:02:11;;;;;;;2.95;2.42;;;;;;;25.81;69.94;99839.63;4908263;29;20032;-86
2022/07/11 08:04:37;;;;;;;2.80;2.50;;;;;;;25.85;71.36;99844.47;4913590;29;20139;-85
2022/07/11 08:07:02;;;;;;;5.35;2.80;;;;;;;25.95;71.35;99836.34;4913434;29;20028;-86
2022/07/11 08:09:30;;;;;;;4.07;2.42;;;;;;;26.08;71.67;99837.59;4914394;29;20032;-87
2022/07/11 08:11:56;;;;;;;4.50;2.95;;;;;;;26.01;72.06;99839.78;4920404;29;20514;-87
2022/07/11 08:14:25;;;;;;;3.45;2.70;;;;;;;26.18;72.69;99844.84;4917246;29;20061;-87
2022/07/11 08:16:50;;;;;;;5.43;2.78;;;;;;;26.12;71.57;99835.97;4912950;29;20028;-86
2022/07/11 08:19:18;;;;;;;2.90;2.60;;;;;;;26.28;72.29;99847.44;4914698;29;20147;-87
2022/07/11 08:21:45;;;;;;;3.53;3.13;;;;;;;26.27;71.90;99835.06;4908882;29;20569;-87
2022/07/11 08:24:11;;;;;;;2.90;2.70;;;;;;;26.37;72.91;99851.16;4903239;29;20040;-87
2022/07/11 08:26:37;;;;;;;5.53;2.97;;;;;;;26.36;72.52;99832.59;4908956;29;20032;-87
2022/07/11 08:29:04;;;;;;;3.75;3.08;;;;;;;26.51;74.09;99839.75;4896268;29;20115;-87
2022/07/11 08:31:30;;;;;;;4.53;3.00;;;;;;;26.55;73.65;99837.28;4905643;29;20071;-87
2022/07/11 08:33:57;;;;;;;5.78;3.58;;;;;;;26.67;75.71;99841.22;4886284;29;20437;-87
2022/07/11 08:36:23;;;;;;;5.22;3.30;;;;;;;26.80;74.06;99841.66;4899386;29;20028;-87
2022/07/11 08:38:49;;;;;;;5.28;3.33;;;;;;;26.86;73.41;99840.53;4905620;29;20047;-88
2022/07/11 08:41:16;;;;;;;6.40;3.28;;;;;;;26.98;73.24;99834.78;4903582;29;20033;-88
2022/07/11 08:43:43;;;;;;;4.93;3.50;;;;;;;27.03;73.17;99842.81;4885615;29;20036;-88
2022/07/11 08:46:14;;;;;;;4.95;4.45;;;;;;;27.07;71.67;99837.66;4901120;29;20392;-88
2022/07/11 08:48:41;;;;;;;9.23;5.13;;;;;;;27.07;71.32;99825.00;4876735;29;20146;-87
2022/07/11 08:51:08;;;;;;;6.78;4.72;;;;;;;27.23;72.01;99836.41;4887684;29;20016;-87
2022/07/11 08:53:40;;;;;;;9.07;4.65;;;;;;;27.29;72.72;99833.63;4887152;29;20032;-88
2022/07/11 08:56:10;;;;;;;6.37;4.10;;;;;;;27.38;71.92;99831.94;4901721;29;20040;-90
2022/07/11 08:58:37;;;;;;;7.88;3.70;;;;;;;27.41;70.58;99831.34;4874906;29;20073;-86
2022/07/11 09:01:03;;;;;;;6.43;3.58;;;;;;;27.24;65.16;99831.81;4906002;29;20110;-89
2022/07/11 09:03:29;;;;;;;3.80;3.13;;;;;;;27.39;66.16;99825.44;4897842;29;20031;-89
2022/07/11 09:05:56;;;;;;;3.17;2.97;;;;;;;27.47;65.83;99819.41;4904176;29;20040;-87
2022/07/11 09:08:25;;;;;;;3.60;3.35;;;;;;;27.05;63.17;99818.28;4906307;29;20496;-89
2022/07/11 09:10:51;;;;;;;3.75;3.00;;;;;;;27.26;63.62;99820.75;4890562;29;20078;-88
2022/07/11 09:13:17;;;;;;;3.75;2.80;;;;;;;27.43;63.31;99818.38;4904641;29;20447;-87
2022/07/11 09:15:48;;;;;;;4.13;3.10;;;;;;;27.71;63.13;99818.63;4912668;29;20040;-88
2022/07/11 09:18:34;;;;;;;3.53;3.30;;;;;;;27.62;62.18;99809.53;4912037;29;20376;-87
2022/07/11 09:26:36;;;;;;;3.53;3.22;;;;;;;28.28;61.14;99803.50;4886458;29;20043;-85
2022/07/11 09:29:14;;;;;;;3.42;3.13;;;;;;;28.25;62.08;99802.19;4871735;29;20036;-84
2022/07/11 09:31:42;;;;;;;5.53;3.05;;;;;;;28.32;61.18;99799.94;4902964;29;20514;-87
2022/07/11 09:34:10;;;;;;;3.55;3.22;;;;;;;28.60;59.80;99802.69;4899570;29;20080;-88
2022/07/11 09:36:40;;;;;;;3.53;3.22;;;;;;;28.76;59.96;99813.22;4905282;29;20051;-87
2022/07/11 09:39:09;;;;;;;3.38;3.05;;;;;;;28.94;59.95;99795.34;4899983;29;20395;-87
2022/07/11 09:41:36;;;;;;;4.30;3.35;;;;;;;29.22;59.77;99806.97;4904389;29;20116;-87
2022/07/11 09:44:10;;;;;;;6.07;3.20;;;;;;;29.41;60.21;99792.56;4899481;29;20037;-85
2022/07/11 09:46:37;;;;;;;4.18;3.75;;;;;;;29.72;59.17;99800.03;4888436;29;20036;-84
2022/07/11 09:49:03;;;;;;;3.45;3.13;;;;;;;29.85;58.83;99808.38;4887526;29;20063;-85
2022/07/11 09:51:33;;;;;;;3.30;3.10;;;;;;;29.97;58.41;99811.38;4885056;29;20395;-85
2022/07/11 09:53:59;;;;;;;3.88;3.22;;;;;;;30.00;58.95;99802.63;4905355;29;20503;-84
2022/07/11 09:56:35;;;;;;;4.65;3.95;;;;;;;30.23;57.70;99804.59;4903171;29;20036;-87
2022/07/11 09:59:03;;;;;;;6.18;3.30;;;;;;;30.26;58.88;99795.84;4907932;29;20430;-86
2022/07/11 10:01:30;;;;;;;3.80;3.50;;;;;;;29.98;57.49;99804.84;4902867;29;20028;-86
2022/07/11 10:03:56;;;;;;;3.22;3.03;;;;;;;29.87;54.39;99806.19;4888121;29;20042;-85
2022/07/11 10:06:24;;;;;;;3.47;3.17;;;;;;;29.67;55.64;99805.53;4868113;29;20040;-84
2022/07/11 10:08:51;;;;;;;3.55;3.35;;;;;;;29.49;55.67;99802.69;4901670;29;20028;-85
2022/07/11 10:11:18;;;;;;;5.35;3.40;;;;;;;29.28;57.00;99798.75;4904118;29;20039;-86
2022/07/11 10:13:44;;;;;;;4.32;3.33;;;;;;;29.12;56.80;99798.25;4902957;29;20051;-86
2022/07/11 10:16:21;;;;;;;5.07;3.20;;;;;;;29.49;55.85;99796.47;4909998;29;20036;-85
2022/07/11 10:18:53;;;;;;;5.45;3.20;;;;;;;29.81;56.24;99794.69;4905929;29;20055;-85
2022/07/11 10:21:46;;;;;;;3.55;3.00;;;;;;;29.50;55.14;99803.47;4888037;29;20043;-87
2022/07/11 10:24:53;;;;;;;6.88;3.30;;;;;;;29.62;55.53;99786.72;4904152;29;21684;-86
2022/07/11 10:27:29;;;;;;;3.30;3.10;;;;;;;29.51;55.66;99786.13;4904629;29;20135;-86
2022/07/11 10:29:55;;;;;;;3.67;3.38;;;;;;;29.28;56.65;99796.03;4892651;29;20063;-86
2022/07/11 10:32:20;;;;;;;3.40;3.20;;;;;;;29.25;56.68;99785.84;4908247;29;20063;-86
2022/07/11 10:35:04;;;;;;;3.90;3.60;;;;;;;29.22;56.99;99782.63;4905757;29;20032;-85
2022/07/11 10:37:30;;;;;;;3.50;3.20;;;;;;;29.57;55.77;99778.72;4890545;29;20399;-86
2022/07/11 10:39:58;;;;;;;3.60;3.03;;;;;;;29.63;56.33;99778.31;4879816;29;20040;-84
2022/07/11 10:42:41;;;;;;;4.38;3.10;;;;;;;30.03;57.39;99782.31;4897188;29;20498;-84
2022/07/11 10:45:12;;;;;;;4.72;3.30;;;;;;;30.31;57.42;99771.34;4906162;29;20021;-83
2022/07/11 10:47:44;;;;;;;3.42;3.15;;;;;;;30.40;56.25;99764.06;4889880;29;20391;-84
2022/07/11 10:50:41;;;;;;;6.65;3.30;;;;;;;30.59;58.07;99776.59;4905005;29;20478;-84
2022/07/11 10:53:12;;;;;;;3.30;3.05;;;;;;;30.60;58.50;99784.41;4907341;29;20123;-85
2022/07/11 10:55:47;;;;;;;3.67;3.10;;;;;;;30.53;56.18;99770.50;4905624;29;20056;-86
2022/07/11 10:58:28;;;;;;;4.85;3.60;;;;;;;30.43;54.36;99768.06;4903872;29;20037;-85
2022/07/11 11:01:12;;;;;;;3.25;3.05;;;;;;;30.08;54.53;99773.28;4891107;29;20040;-85
2022/07/11 11:03:43;;;;;;;6.80;3.60;;;;;;;30.12;54.07;99771.53;4905168;29;20431;-85
2022/07/11 11:06:10;;;;;;;3.20;3.00;;;;;;;30.31;55.88;99771.34;4910586;29;20100;-86
2022/07/11 11:08:43;;;;;;;3.35;3.03;;;;;;;30.05;52.67;99786.28;4913634;29;20043;-86
2022/07/11 11:11:23;;;;;;;3.33;3.10;;;;;;;30.00;53.05;99783.69;4902571;29;20471;-87
2022/07/11 11:14:26;;;;;;;4.25;3.10;;;;;;;30.00;52.92;99775.56;4910390;29;20051;-85
2022/07/11 11:16:52;;;;;;;4.38;2.85;;;;;;;30.17;52.82;99771.41;4889733;29;20543;-86
2022/07/11 11:19:46;;;;;;;3.95;3.47;;;;;;;30.26;53.46;99779.59;4908572;29;20025;-86
2022/07/11 11:22:15;;;;;;;3.53;3.20;;;;;;;30.16;54.00;99786.84;4908694;29;20471;-86
2022/07/11 11:24:43;;;;;;;3.30;3.00;;;;;;;30.22;52.07;99771.28;4903294;29;20025;-86
2022/07/11 11:27:18;;;;;;;5.55;3.13;;;;;;;30.33;52.23;99769.13;4904428;29;20479;-86
2022/07/11 11:29:49;;;;;;;3.58;3.28;;;;;;;30.59;53.13;99771.97;4906027;29;20032;-87
2022/07/11 11:32:15;;;;;;;3.30;3.10;;;;;;;30.61;53.83;99775.19;4903829;29;20083;-86
2022/07/11 11:34:59;;;;;;;4.03;3.22;;;;;;;30.58;50.49;99769.56;4876755;29;20507;-86
2022/07/11 11:37:25;;;;;;;3.47;2.70;;;;;;;30.38;51.74;99760.88;4903043;29;20039;-86
2022/07/11 11:39:58;;;;;;;3.30;3.00;;;;;;;30.49;50.84;99762.19;4911426;29;20060;-88
2022/07/11 11:42:27;;;;;;;4.50;3.45;;;;;;;30.64;53.23;99757.50;4904036;29;20517;-87